createdAt,value
2023-03-11T00:00:27.794Z,100.00
2023-03-11T00:03:01.242Z,100.00
2023-03-11T00:05:31.557Z,100.00
2023-03-11T00:08:00.427Z,100.00
2023-03-11T00:10:32.480Z,100.00
2023-03-11T00:13:01.291Z,100.00
2023-03-11T00:15:30.108Z,100.00
2023-03-11T00:17:58.795Z,100.00
2023-03-11T00:20:29.284Z,100.00
2023-03-11T00:22:58.012Z,100.00
2023-03-11T00:25:28.156Z,100.00
2023-03-11T00:27:58.323Z,100.00
2023-03-11T00:30:27.426Z,100.00
2023-03-11T00:32:57.526Z,100.00
2023-03-11T00:35:27.839Z,100.00
2023-03-11T00:37:57.590Z,100.00
2023-03-11T00:40:27.859Z,100.00
2023-03-11T00:42:57.583Z,100.00
2023-03-11T00:45:26.468Z,100.00
2023-03-11T00:47:56.041Z,100.00
2023-03-11T00:50:26.121Z,100.00
2023-03-11T00:52:54.227Z,100.00
2023-03-11T00:55:24.728Z,100.00
2023-03-11T00:57:54.777Z,100.00
2023-03-11T01:00:26.152Z,100.00
2023-03-11T01:02:55.258Z,100.00
2023-03-11T01:05:26.005Z,100.00
2023-03-11T01:07:54.044Z,100.00
2023-03-11T01:10:22.554Z,100.00
2023-03-11T01:12:50.617Z,100.00
2023-03-11T01:15:22.580Z,100.00
2023-03-11T01:17:52.618Z,100.00
2023-03-11T01:20:21.195Z,100.00
2023-03-11T01:22:49.260Z,100.00
2023-03-11T01:25:20.277Z,100.00
2023-03-11T01:27:48.717Z,100.00
2023-03-11T01:30:19.526Z,100.00
2023-03-11T01:32:47.545Z,100.00
2023-03-11T01:35:19.913Z,100.00
2023-03-11T01:37:48.093Z,100.00
2023-03-11T01:40:20.949Z,100.00
2023-03-11T01:42:48.952Z,100.00
2023-03-11T01:45:34.876Z,100.00
2023-03-11T01:48:03.983Z,100.00
2023-03-11T01:50:37.316Z,100.00
2023-03-11T01:53:06.205Z,100.00
2023-03-11T01:55:34.616Z,100.00
2023-03-11T01:58:06.581Z,100.00
2023-03-11T02:00:35.417Z,100.00
2023-03-11T02:03:10.479Z,100.00
2023-03-11T02:05:41.424Z,100.00
2023-03-11T02:08:09.538Z,100.00
2023-03-11T02:10:39.680Z,100.00
2023-03-11T02:13:07.954Z,100.00
2023-03-11T02:15:37.765Z,100.00
2023-03-11T02:18:08.826Z,100.00
2023-03-11T02:20:45.978Z,100.00
2023-03-11T02:23:15.904Z,100.00
2023-03-11T02:25:52.206Z,100.00
2023-03-11T02:28:23.207Z,100.00
2023-03-11T02:30:52.590Z,100.00
2023-03-11T02:33:21.349Z,100.00
2023-03-11T02:35:49.347Z,100.00
2023-03-11T02:38:17.363Z,100.00
2023-03-11T02:40:53.845Z,100.00
2023-03-11T02:43:28.977Z,100.00
2023-03-11T02:45:58.561Z,100.00
2023-03-11T02:48:27.331Z,100.00
2023-03-11T02:50:55.334Z,100.00
2023-03-11T02:53:23.724Z,100.00
2023-03-11T02:55:51.722Z,100.00
2023-03-11T02:58:19.947Z,100.00
2023-03-11T03:00:49.736Z,100.00
2023-03-11T03:03:17.775Z,100.00
2023-03-11T03:05:46.101Z,100.00
2023-03-11T03:08:14.257Z,100.00
2023-03-11T03:10:42.238Z,100.00
2023-03-11T03:13:10.481Z,100.00
2023-03-11T03:15:38.792Z,100.00
2023-03-11T03:18:08.255Z,100.00
2023-03-11T03:20:36.216Z,100.00
2023-03-11T03:23:04.263Z,100.00
2023-03-11T03:25:32.268Z,100.00
2023-03-11T03:28:00.397Z,100.00
2023-03-11T03:30:30.398Z,100.00
2023-03-11T03:32:58.330Z,100.00
2023-03-11T03:35:28.532Z,100.00
2023-03-11T03:37:56.589Z,100.00
2023-03-11T03:40:24.653Z,100.00
2023-03-11T03:42:52.635Z,100.00
2023-03-11T03:45:23.007Z,100.00
2023-03-11T03:47:51.068Z,100.00
2023-03-11T03:50:19.303Z,100.00
2023-03-11T03:52:49.246Z,100.00
2023-03-11T03:55:17.491Z,100.00
2023-03-11T03:57:45.454Z,100.00
2023-03-11T04:00:14.731Z,100.00
2023-03-11T04:02:42.922Z,100.00
2023-03-11T04:05:11.690Z,100.00
2023-03-11T04:07:39.627Z,100.00
2023-03-11T04:10:10.897Z,100.00
2023-03-11T04:12:38.892Z,100.00
2023-03-11T04:15:09.567Z,100.00
2023-03-11T04:17:38.291Z,100.00
2023-03-11T04:20:09.246Z,100.00
2023-03-11T04:22:37.460Z,100.00
2023-03-11T04:25:05.965Z,100.00
2023-03-11T04:27:35.477Z,100.00
2023-03-11T04:30:03.650Z,100.00
2023-03-11T04:32:32.087Z,100.00
2023-03-11T04:35:00.181Z,100.00
2023-03-11T04:37:29.500Z,100.00
2023-03-11T04:39:57.473Z,100.00
2023-03-11T04:42:25.452Z,100.00
2023-03-11T04:44:54.777Z,100.00
2023-03-11T04:47:22.786Z,100.00
2023-03-11T04:49:50.758Z,100.00
2023-03-11T04:52:18.998Z,100.00
2023-03-11T04:54:47.262Z,100.00
2023-03-11T04:57:15.280Z,100.00
2023-03-11T04:59:43.695Z,100.00
2023-03-11T05:02:13.122Z,100.00
2023-03-11T05:04:41.127Z,100.00
2023-03-11T05:07:09.355Z,100.00
2023-03-11T05:09:37.320Z,100.00
2023-03-11T05:12:06.013Z,100.00
2023-03-11T05:14:34.012Z,100.00
2023-03-11T05:17:01.925Z,100.00
2023-03-11T05:19:35.422Z,100.00
2023-03-11T05:22:04.555Z,100.00
2023-03-11T05:24:32.854Z,100.00
2023-03-11T05:27:01.762Z,100.00
2023-03-11T05:29:30.135Z,100.00
2023-03-11T05:31:58.085Z,100.00
2023-03-11T05:34:26.048Z,100.00
2023-03-11T05:36:55.349Z,100.00
2023-03-11T05:39:23.263Z,100.00
2023-03-11T05:41:51.212Z,100.00
2023-03-11T05:44:19.125Z,100.00
2023-03-11T05:46:47.047Z,100.00
2023-03-11T05:49:15.058Z,100.00
2023-03-11T05:51:43.032Z,100.00
2023-03-11T05:54:15.361Z,100.00
2023-03-11T05:56:44.466Z,100.00
2023-03-11T05:59:16.123Z,100.00
2023-03-11T06:01:45.130Z,100.00
2023-03-11T06:04:13.294Z,100.00
2023-03-11T06:06:42.375Z,100.00
2023-03-11T06:09:13.802Z,100.00
2023-03-11T06:11:43.329Z,100.00
2023-03-11T06:14:12.921Z,100.00
2023-03-11T06:16:41.048Z,100.00
2023-03-11T06:19:09.172Z,100.00
2023-03-11T06:21:37.274Z,100.00
2023-03-11T06:24:05.758Z,100.00
2023-03-11T06:26:35.104Z,100.00
2023-03-11T06:29:03.698Z,100.00
2023-03-11T06:31:31.903Z,100.00
2023-03-11T06:34:00.020Z,100.00
2023-03-11T06:36:28.725Z,100.00
2023-03-11T06:38:56.887Z,100.00
2023-03-11T06:41:25.070Z,100.00
2023-03-11T06:43:55.021Z,100.00
2023-03-11T06:46:24.374Z,100.00
2023-03-11T06:48:53.112Z,100.00
2023-03-11T06:51:22.228Z,100.00
2023-03-11T06:53:51.967Z,100.00
2023-03-11T06:56:20.964Z,100.00
2023-03-11T06:58:49.388Z,100.00
2023-03-11T07:01:20.452Z,100.00
2023-03-11T07:03:49.680Z,100.00
2023-03-11T07:06:19.655Z,100.00
2023-03-11T07:08:48.491Z,100.00
2023-03-11T07:11:19.088Z,100.00
2023-03-11T07:13:47.556Z,100.00
2023-03-11T07:16:17.140Z,100.00
2023-03-11T07:18:48.607Z,100.00
2023-03-11T07:21:19.014Z,100.00
2023-03-11T07:23:48.989Z,100.00
2023-03-11T07:26:18.061Z,100.00
2023-03-11T07:28:46.161Z,100.00
2023-03-11T07:31:19.971Z,100.00
2023-03-11T07:33:49.340Z,100.00
2023-03-11T07:36:19.880Z,100.00
2023-03-11T07:38:48.710Z,100.00
2023-03-11T07:41:17.184Z,100.00
2023-03-11T07:43:45.488Z,100.00
2023-03-11T07:46:16.724Z,100.00
2023-03-11T07:48:44.762Z,100.00
2023-03-11T07:51:16.558Z,100.00
2023-03-11T07:53:44.778Z,100.00
2023-03-11T07:56:14.108Z,100.00
2023-03-11T07:58:45.259Z,100.00
2023-03-11T08:01:16.200Z,100.00
2023-03-11T08:03:44.761Z,100.00
2023-03-11T08:06:18.888Z,100.00
2023-03-11T08:08:47.205Z,100.00
2023-03-11T08:11:16.097Z,100.00
2023-03-11T08:13:45.905Z,100.00
2023-03-11T08:16:15.397Z,100.00
2023-03-11T08:18:43.610Z,100.00
2023-03-11T08:21:14.766Z,100.00
2023-03-11T08:23:44.619Z,100.00
2023-03-11T08:26:16.883Z,100.00
2023-03-11T08:28:44.931Z,100.00
2023-03-11T08:31:17.113Z,100.00
2023-03-11T08:33:47.236Z,100.00
2023-03-11T08:36:15.395Z,95.44
2023-03-11T08:38:44.735Z,95.43
2023-03-11T08:41:12.812Z,94.62
2023-03-11T08:43:42.373Z,92.26
2023-03-11T08:46:15.130Z,96.46
2023-03-11T08:48:43.069Z,97.62
2023-03-11T08:51:12.457Z,93.25
2023-03-11T08:53:40.471Z,96.06
2023-03-11T08:56:10.561Z,96.85
2023-03-11T08:58:38.542Z,95.87
2023-03-11T09:01:07.123Z,98.03
2023-03-11T09:03:36.451Z,96.11
2023-03-11T09:06:06.956Z,94.02
2023-03-11T09:08:35.308Z,94.12
2023-03-11T09:11:03.435Z,94.62
2023-03-11T09:13:33.144Z,96.70
2023-03-11T09:16:01.174Z,93.50
2023-03-11T09:18:29.431Z,90.19
2023-03-11T09:20:58.524Z,92.15
2023-03-11T09:23:26.503Z,91.21
2023-03-11T09:25:54.428Z,87.40
2023-03-11T09:28:22.408Z,86.16
2023-03-11T09:30:51.883Z,83.51
2023-03-11T09:33:19.890Z,79.90
2023-03-11T09:35:47.840Z,80.28
2023-03-11T09:38:15.792Z,79.65
2023-03-11T09:40:53.708Z,82.57
2023-03-11T09:43:32.179Z,78.75
2023-03-11T09:46:17.022Z,79.60
2023-03-11T09:48:50.155Z,75.18
2023-03-11T09:51:27.037Z,73.92
2023-03-11T09:54:00.310Z,75.82
2023-03-11T09:56:28.988Z,76.74
2023-03-11T09:59:01.159Z,72.93
2023-03-11T10:01:33.351Z,78.33
2023-03-11T10:04:09.933Z,78.51
2023-03-11T10:06:39.128Z,77.64
2023-03-11T10:09:22.364Z,75.57
2023-03-11T10:12:04.437Z,73.74
2023-03-11T10:14:45.129Z,75.95
2023-03-11T10:17:30.553Z,76.50
2023-03-11T10:20:06.531Z,73.12
2023-03-11T10:22:42.289Z,73.53
2023-03-11T10:25:15.877Z,73.85
2023-03-11T10:27:49.575Z,73.68
2023-03-11T10:30:25.866Z,72.72
2023-03-11T10:32:59.480Z,70.49
2023-03-11T10:35:34.664Z,71.51
2023-03-11T10:38:13.046Z,71.22
2023-03-11T10:40:43.006Z,74.33
2023-03-11T10:43:14.438Z,69.66
2023-03-11T10:45:45.020Z,72.72
2023-03-11T10:48:16.092Z,75.07
2023-03-11T10:50:50.950Z,72.85
2023-03-11T10:53:20.998Z,74.33
2023-03-11T10:55:50.567Z,70.96
2023-03-11T10:58:20.893Z,73.62
2023-03-11T11:01:01.812Z,78.15
2023-03-11T11:03:32.034Z,71.42
2023-03-11T11:06:02.484Z,72.42
2023-03-11T11:08:30.683Z,69.55
2023-03-11T11:11:00.282Z,69.88
2023-03-11T11:13:31.391Z,69.20
2023-03-11T11:16:01.946Z,73.96
2023-03-11T11:18:34.684Z,69.74
2023-03-11T11:21:06.605Z,69.16
2023-03-11T11:23:40.475Z,71.19
2023-03-11T11:26:09.962Z,71.33
2023-03-11T11:28:37.903Z,69.80
2023-03-11T11:31:20.203Z,72.40
2023-03-11T11:33:53.600Z,67.62
2023-03-11T11:36:24.458Z,67.74
2023-03-11T11:38:54.134Z,68.82
2023-03-11T11:41:24.735Z,65.53
2023-03-11T11:43:54.990Z,67.34
2023-03-11T11:46:28.096Z,68.78
2023-03-11T11:49:12.546Z,69.00
2023-03-11T11:51:45.831Z,68.00
2023-03-11T11:54:19.567Z,69.60
2023-03-11T11:56:47.831Z,67.71
2023-03-11T11:59:20.274Z,69.04
2023-03-11T12:01:58.651Z,70.09
2023-03-11T12:04:45.585Z,69.39
2023-03-11T12:07:26.370Z,68.69
2023-03-11T12:10:12.879Z,70.17
2023-03-11T12:13:01.747Z,69.33
2023-03-11T12:15:33.415Z,69.66
2023-03-11T12:18:05.855Z,68.99
2023-03-11T12:20:41.888Z,70.65
2023-03-11T12:23:19.173Z,70.44
2023-03-11T12:25:59.868Z,70.06
2023-03-11T12:28:38.045Z,68.86
2023-03-11T12:31:10.260Z,68.45
2023-03-11T12:33:41.312Z,69.04
2023-03-11T12:36:24.629Z,70.18
2023-03-11T12:38:54.503Z,66.98
2023-03-11T12:41:32.051Z,67.20
2023-03-11T12:44:05.718Z,67.09
2023-03-11T12:47:10.337Z,65.99
2023-03-11T12:49:40.749Z,66.63
2023-03-11T12:52:29.273Z,67.34
2023-03-11T12:55:30.321Z,68.75
2023-03-11T12:58:07.214Z,68.84
2023-03-11T13:00:49.848Z,67.03
2023-03-11T13:03:50.589Z,65.16
2023-03-11T13:06:39.149Z,66.96
2023-03-11T13:09:15.653Z,67.03
2023-03-11T13:11:46.185Z,67.68
2023-03-11T13:14:35.222Z,64.96
2023-03-11T13:17:28.379Z,61.38
2023-03-11T13:19:57.532Z,63.68
2023-03-11T13:23:06.616Z,61.37
2023-03-11T13:25:42.859Z,64.97
2023-03-11T13:28:42.071Z,62.76
2023-03-11T13:31:29.525Z,62.58
2023-03-11T13:34:00.989Z,65.44
2023-03-11T13:36:43.526Z,64.79
2023-03-11T13:39:32.818Z,65.41
2023-03-11T13:42:04.790Z,63.49
2023-03-11T13:44:37.899Z,64.49
2023-03-11T13:47:11.049Z,67.07
2023-03-11T13:49:43.559Z,63.12
2023-03-11T13:52:17.295Z,65.29
2023-03-11T13:54:49.156Z,66.44
2023-03-11T13:57:26.685Z,67.43
2023-03-11T13:59:55.627Z,64.72
2023-03-11T14:02:26.504Z,66.47
2023-03-11T14:04:58.270Z,65.53
2023-03-11T14:07:29.639Z,63.21
2023-03-11T14:10:24.637Z,66.96
2023-03-11T14:13:05.524Z,64.73
2023-03-11T14:15:44.464Z,65.74
2023-03-11T14:18:33.681Z,65.57
2023-03-11T14:21:02.662Z,64.07
2023-03-11T14:23:34.282Z,63.46
2023-03-11T14:26:05.747Z,66.84
2023-03-11T14:28:39.116Z,67.00
2023-03-11T14:31:07.472Z,66.94
2023-03-11T14:33:35.417Z,66.03
2023-03-11T14:36:06.005Z,66.91
2023-03-11T14:38:34.381Z,67.00
2023-03-11T14:41:05.560Z,69.73
2023-03-11T14:43:38.666Z,71.53
2023-03-11T14:46:08.234Z,72.41
2023-03-11T14:48:40.182Z,72.84
2023-03-11T14:51:15.730Z,73.30
2023-03-11T14:53:47.929Z,75.67
2023-03-11T14:56:21.258Z,74.09
2023-03-11T14:59:07.035Z,76.62
2023-03-11T15:01:40.666Z,76.49
2023-03-11T15:04:13.320Z,75.55
2023-03-11T15:06:44.267Z,76.06
2023-03-11T15:09:14.445Z,76.03
2023-03-11T15:11:47.401Z,76.05
2023-03-11T15:14:23.083Z,78.46
2023-03-11T15:16:52.211Z,78.22
2023-03-11T15:19:25.375Z,78.82
2023-03-11T15:21:55.307Z,77.34
2023-03-11T15:24:27.543Z,77.26
2023-03-11T15:26:58.495Z,74.41
2023-03-11T15:29:28.563Z,76.12
2023-03-11T15:31:57.342Z,76.86
2023-03-11T15:34:29.162Z,74.23
2023-03-11T15:37:03.169Z,75.40
2023-03-11T15:39:43.900Z,76.57
2023-03-11T15:42:24.517Z,75.65
2023-03-11T15:45:16.956Z,75.45
2023-03-11T15:47:45.647Z,77.00
2023-03-11T15:50:25.197Z,77.48
2023-03-11T15:52:55.952Z,74.37
2023-03-11T15:55:24.305Z,72.83
2023-03-11T15:57:55.075Z,73.37
2023-03-11T16:00:25.485Z,74.36
2023-03-11T16:02:54.604Z,74.50
2023-03-11T16:05:24.017Z,76.20
2023-03-11T16:07:52.524Z,76.04
2023-03-11T16:10:22.548Z,76.44
2023-03-11T16:12:50.512Z,75.93
2023-03-11T16:15:25.066Z,76.44
2023-03-11T16:17:56.305Z,76.65
2023-03-11T16:20:25.991Z,75.91
2023-03-11T16:22:56.312Z,75.21
2023-03-11T16:25:27.420Z,78.57
2023-03-11T16:27:57.600Z,78.57
2023-03-11T16:30:27.200Z,76.65
2023-03-11T16:32:56.717Z,77.48
2023-03-11T16:35:25.314Z,76.63
2023-03-11T16:37:53.499Z,78.80
2023-03-11T16:40:25.338Z,75.56
2023-03-11T16:42:56.778Z,72.94
2023-03-11T16:45:25.522Z,75.33
2023-03-11T16:47:53.563Z,74.02
2023-03-11T16:50:24.346Z,72.25
2023-03-11T16:52:52.579Z,74.81
2023-03-11T16:55:20.818Z,72.96
2023-03-11T16:57:49.184Z,74.85
2023-03-11T17:00:18.240Z,70.00
2023-03-11T17:02:46.254Z,72.61
2023-03-11T17:05:14.512Z,72.21
2023-03-11T17:07:44.276Z,73.60
2023-03-11T17:10:13.438Z,75.07
2023-03-11T17:12:41.359Z,74.64
2023-03-11T17:15:10.201Z,73.53
2023-03-11T17:17:38.151Z,74.52
2023-03-11T17:20:07.761Z,74.87
2023-03-11T17:22:35.877Z,74.34
2023-03-11T17:25:06.299Z,70.18
2023-03-11T17:27:34.209Z,69.66
2023-03-11T17:30:03.186Z,72.74
2023-03-11T17:32:31.736Z,67.83
2023-03-11T17:34:59.759Z,69.78
2023-03-11T17:37:27.755Z,71.09
2023-03-11T17:39:55.691Z,70.18
2023-03-11T17:42:25.522Z,68.40
2023-03-11T17:44:56.935Z,70.41
2023-03-11T17:47:26.288Z,73.27
2023-03-11T17:49:54.486Z,72.37
2023-03-11T17:52:22.541Z,71.69
2023-03-11T17:54:51.896Z,72.43
2023-03-11T17:57:19.963Z,70.20
2023-03-11T17:59:53.102Z,72.27
2023-03-11T18:02:21.756Z,69.99
2023-03-11T18:04:53.979Z,69.53
2023-03-11T18:07:23.730Z,68.39
2023-03-11T18:09:52.770Z,69.65
2023-03-11T18:12:21.419Z,70.66
2023-03-11T18:14:49.483Z,71.11
2023-03-11T18:17:19.776Z,70.48
2023-03-11T18:19:47.699Z,71.17
2023-03-11T18:22:16.370Z,70.27
2023-03-11T18:24:45.498Z,70.13
2023-03-11T18:27:13.467Z,70.86
2023-03-11T18:29:41.564Z,71.41
2023-03-11T18:32:09.559Z,72.18
2023-03-11T18:34:39.317Z,71.72
2023-03-11T18:37:07.390Z,71.27
2023-03-11T18:39:35.505Z,69.61
2023-03-11T18:42:04.651Z,70.80
2023-03-11T18:44:32.606Z,73.03
2023-03-11T18:47:00.657Z,73.24
2023-03-11T18:49:29.433Z,73.01
2023-03-11T18:51:59.197Z,72.31
2023-03-11T18:54:27.312Z,70.13
2023-03-11T18:56:55.255Z,70.87
2023-03-11T18:59:23.221Z,70.69
2023-03-11T19:01:51.390Z,71.33
2023-03-11T19:04:19.365Z,72.32
2023-03-11T19:06:47.579Z,71.95
2023-03-11T19:09:18.400Z,73.19
2023-03-11T19:11:46.484Z,74.19
2023-03-11T19:14:14.540Z,75.14
2023-03-11T19:16:42.573Z,73.72
2023-03-11T19:19:11.924Z,73.67
2023-03-11T19:21:40.276Z,74.15
2023-03-11T19:24:08.275Z,73.78
2023-03-11T19:26:46.610Z,73.26
2023-03-11T19:29:15.164Z,74.64
2023-03-11T19:31:44.103Z,74.19
2023-03-11T19:34:12.183Z,74.04
2023-03-11T19:36:40.620Z,75.14
2023-03-11T19:39:08.937Z,74.05
2023-03-11T19:41:38.346Z,73.33
2023-03-11T19:44:06.436Z,74.38
2023-03-11T19:46:34.925Z,72.90
2023-03-11T19:49:03.482Z,74.52
2023-03-11T19:51:46.372Z,74.16
2023-03-11T19:54:17.198Z,75.65
2023-03-11T19:56:46.799Z,75.44
2023-03-11T19:59:15.018Z,73.99
2023-03-11T20:01:43.435Z,76.10
2023-03-11T20:04:11.857Z,75.22
2023-03-11T20:06:39.970Z,74.79
2023-03-11T20:09:08.094Z,74.74
2023-03-11T20:11:39.710Z,73.52
2023-03-11T20:14:11.062Z,74.23
2023-03-11T20:16:39.406Z,74.18
2023-03-11T20:19:08.021Z,74.96
2023-03-11T20:21:39.308Z,74.26
2023-03-11T20:24:08.524Z,74.70
2023-03-11T20:26:37.521Z,73.93
2023-03-11T20:29:05.861Z,73.79
2023-03-11T20:31:36.540Z,72.79
2023-03-11T20:34:05.000Z,75.08
2023-03-11T20:36:34.163Z,74.87
2023-03-11T20:39:02.474Z,74.19
2023-03-11T20:41:35.927Z,71.82
2023-03-11T20:44:04.246Z,74.75
2023-03-11T20:46:33.991Z,73.47
2023-03-11T20:49:04.121Z,73.63
2023-03-11T20:51:32.137Z,74.61
2023-03-11T20:54:00.198Z,73.54
2023-03-11T20:56:28.597Z,72.76
2023-03-11T20:58:59.285Z,73.95
2023-03-11T21:01:29.756Z,74.85
2023-03-11T21:03:59.322Z,71.96
2023-03-11T21:06:30.460Z,73.32
2023-03-11T21:09:01.644Z,74.08
2023-03-11T21:11:30.282Z,71.50
2023-03-11T21:13:58.749Z,74.60
2023-03-11T21:16:28.231Z,73.21
2023-03-11T21:18:56.506Z,73.50
2023-03-11T21:21:25.642Z,72.76
2023-03-11T21:23:55.420Z,73.65
2023-03-11T21:26:23.557Z,73.67
2023-03-11T21:28:51.514Z,73.93
2023-03-11T21:31:21.577Z,75.97
2023-03-11T21:33:53.522Z,74.25
2023-03-11T21:36:21.725Z,74.75
2023-03-11T21:38:50.395Z,74.49
2023-03-11T21:41:21.403Z,73.52
2023-03-11T21:43:49.693Z,74.83
2023-03-11T21:46:20.331Z,75.10
2023-03-11T21:48:49.200Z,75.83
2023-03-11T21:51:18.914Z,74.88
2023-03-11T21:53:47.269Z,75.36
2023-03-11T21:56:15.788Z,74.65
2023-03-11T21:58:45.420Z,74.87
2023-03-11T22:01:13.957Z,74.15
2023-03-11T22:03:41.969Z,76.01
2023-03-11T22:06:11.952Z,75.62
2023-03-11T22:08:40.284Z,75.57
2023-03-11T22:11:09.980Z,74.78
2023-03-11T22:13:38.067Z,75.12
2023-03-11T22:16:08.832Z,75.95
2023-03-11T22:18:38.498Z,76.18
2023-03-11T22:21:09.960Z,76.87
2023-03-11T22:23:38.334Z,74.88
2023-03-11T22:26:06.327Z,76.37
2023-03-11T22:28:34.480Z,76.27
2023-03-11T22:31:08.963Z,76.27
2023-03-11T22:33:36.983Z,76.18
2023-03-11T22:36:05.978Z,75.45
2023-03-11T22:38:34.280Z,76.83
2023-03-11T22:41:04.920Z,77.60
2023-03-11T22:43:32.841Z,77.07
2023-03-11T22:46:02.333Z,75.75
2023-03-11T22:48:31.845Z,76.17
2023-03-11T22:50:59.961Z,75.93
2023-03-11T22:53:28.200Z,76.80
2023-03-11T22:55:56.154Z,77.79
2023-03-11T22:58:24.091Z,77.45
2023-03-11T23:00:52.050Z,76.39
2023-03-11T23:03:20.088Z,77.53
2023-03-11T23:05:49.432Z,76.16
2023-03-11T23:08:17.683Z,77.45
2023-03-11T23:10:47.756Z,77.27
2023-03-11T23:13:16.369Z,78.85
2023-03-11T23:15:45.863Z,78.32
2023-03-11T23:18:15.608Z,77.38
2023-03-11T23:20:44.613Z,78.74
2023-03-11T23:23:14.827Z,78.38
2023-03-11T23:25:43.017Z,79.56
2023-03-11T23:28:10.940Z,79.74
2023-03-11T23:30:40.624Z,79.81
2023-03-11T23:33:08.589Z,79.86
2023-03-11T23:35:41.303Z,79.46
2023-03-11T23:38:10.201Z,79.98
2023-03-11T23:40:41.679Z,79.32
2023-03-11T23:43:09.617Z,80.60
2023-03-11T23:45:37.537Z,79.36
2023-03-11T23:48:05.676Z,80.08
2023-03-11T23:50:33.571Z,80.08
2023-03-11T23:53:01.508Z,81.05
2023-03-11T23:55:29.446Z,80.43
2023-03-11T23:57:58.737Z,80.42
